sensor_id;sensor_type;location;lat;lon;timestamp;pressure;altitude;pressure_sealevel;temperature;humidity
13767;BME280;47980;48.794;9.176;2023-07-20T00:00:11;98076.91;;;20.41;62.47
13767;BME280;47980;48.794;9.176;2023-07-20T00:02:44;98080.41;;;20.31;60.23
13767;BME280;47980;48.794;9.176;2023-07-20T00:05:15;98086.13;;;20.36;59.71
13767;BME280;47980;48.794;9.176;2023-07-20T00:07:48;98087.31;;;20.28;58.53
13767;BME280;47980;48.794;9.176;2023-07-20T00:10:22;98079.22;;;20.35;58.41
13767;BME280;47980;48.794;9.176;2023-07-20T00:12:55;98082.69;;;20.29;57.58
13767;BME280;47980;48.794;9.176;2023-07-20T00:15:26;98090.03;;;20.21;57.75
13767;BME280;47980;48.794;9.176;2023-07-20T00:17:57;98082.72;;;20.18;57.00
13767;BME280;47980;48.794;9.176;2023-07-20T00:20:29;98094.28;;;20.15;56.21
13767;BME280;47980;48.794;9.176;2023-07-20T00:23:01;98087.78;;;20.05;55.78
13767;BME280;47980;48.794;9.176;2023-07-20T00:25:32;98094.69;;;20.13;58.21
13767;BME280;47980;48.794;9.176;2023-07-20T00:28:05;98084.31;;;20.05;55.44
13767;BME280;47980;48.794;9.176;2023-07-20T00:30:38;98086.59;;;20.20;53.93
13767;BME280;47980;48.794;9.176;2023-07-20T00:33:11;98092.41;;;20.05;55.30
13767;BME280;47980;48.794;9.176;2023-07-20T00:35:43;98087.00;;;20.08;55.22
13767;BME280;47980;48.794;9.176;2023-07-20T00:38:14;98084.69;;;20.03;53.74
13767;BME280;47980;48.794;9.176;2023-07-20T00:40:46;98091.25;;;20.02;55.16
13767;BME280;47980;48.794;9.176;2023-07-20T00:43:19;98087.78;;;19.91;56.20
13767;BME280;47980;48.794;9.176;2023-07-20T00:45:51;98094.34;;;19.86;55.72
13767;BME280;47980;48.794;9.176;2023-07-20T00:48:23;98087.41;;;19.89;56.13
13767;BME280;47980;48.794;9.176;2023-07-20T00:50:55;98089.34;;;19.74;56.83
13767;BME280;47980;48.794;9.176;2023-07-20T00:53:26;98092.78;;;19.75;56.52
13767;BME280;47980;48.794;9.176;2023-07-20T00:55:58;98093.56;;;19.68;57.75
13767;BME280;47980;48.794;9.176;2023-07-20T00:58:31;98097.00;;;19.61;57.45
13767;BME280;47980;48.794;9.176;2023-07-20T01:01:03;98102.41;;;19.61;57.70
13767;BME280;47980;48.794;9.176;2023-07-20T01:03:34;98103.16;;;19.58;57.17
13767;BME280;47980;48.794;9.176;2023-07-20T01:06:14;98100.84;;;19.60;58.30
13767;BME280;47980;48.794;9.176;2023-07-20T01:08:56;98099.31;;;19.56;59.41
13767;BME280;47980;48.794;9.176;2023-07-20T01:11:36;98106.22;;;19.46;58.23
13767;BME280;47980;48.794;9.176;2023-07-20T01:14:11;98098.91;;;19.39;58.42
13767;BME280;47980;48.794;9.176;2023-07-20T01:16:43;98093.53;;;19.39;56.70
13767;BME280;47980;48.794;9.176;2023-07-20T01:19:14;98092.75;;;19.39;57.90
13767;BME280;47980;48.794;9.176;2023-07-20T01:21:51;98101.63;;;19.43;58.70
13767;BME280;47980;48.794;9.176;2023-07-20T01:24:41;98101.97;;;19.38;58.00
13767;BME280;47980;48.794;9.176;2023-07-20T01:27:36;98101.97;;;19.38;57.74
13767;BME280;47980;48.794;9.176;2023-07-20T01:30:31;98105.84;;;19.40;55.94
13767;BME280;47980;48.794;9.176;2023-07-20T01:33:09;98102.38;;;19.43;58.12
13767;BME280;47980;48.794;9.176;2023-07-20T01:35:43;98099.28;;;19.38;59.43
13767;BME280;47980;48.794;9.176;2023-07-20T01:38:18;98106.56;;;19.27;58.50
13767;BME280;47980;48.794;9.176;2023-07-20T01:40:50;98102.34;;;19.22;58.25
13767;BME280;47980;48.794;9.176;2023-07-20T01:43:22;98107.34;;;19.27;58.38
13767;BME280;47980;48.794;9.176;2023-07-20T01:45:53;98103.50;;;19.17;58.67
13767;BME280;47980;48.794;9.176;2023-07-20T01:48:26;98098.88;;;19.18;58.64
13767;BME280;47980;48.794;9.176;2023-07-20T01:50:58;98099.25;;;19.13;59.05
13767;BME280;47980;48.794;9.176;2023-07-20T01:53:30;98109.22;;;19.09;60.92
13767;BME280;47980;48.794;9.176;2023-07-20T01:56:01;98105.38;;;19.06;61.80
13767;BME280;47980;48.794;9.176;2023-07-20T01:58:33;98103.03;;;18.94;60.47
13767;BME280;47980;48.794;9.176;2023-07-20T02:01:04;98115.28;;;18.84;61.13
13767;BME280;47980;48.794;9.176;2023-07-20T02:03:37;98115.69;;;18.83;61.50
13767;BME280;47980;48.794;9.176;2023-07-20T02:06:08;98110.28;;;18.79;61.80
13767;BME280;47980;48.794;9.176;2023-07-20T02:08:40;98114.13;;;18.74;61.65
13767;BME280;47980;48.794;9.176;2023-07-20T02:11:11;98109.50;;;18.75;61.40
13767;BME280;47980;48.794;9.176;2023-07-20T02:13:43;98110.28;;;18.79;61.43
13767;BME280;47980;48.794;9.176;2023-07-20T02:16:14;98113.75;;;18.80;59.75
13767;BME280;47980;48.794;9.176;2023-07-20T02:18:47;98112.59;;;18.81;60.30
13767;BME280;47980;48.794;9.176;2023-07-20T02:21:19;98116.81;;;18.74;61.07
13767;BME280;47980;48.794;9.176;2023-07-20T02:23:50;98116.03;;;18.74;60.41
13767;BME280;47980;48.794;9.176;2023-07-20T02:26:24;98110.66;;;18.74;60.36
13767;BME280;47980;48.794;9.176;2023-07-20T02:28:56;98112.97;;;18.75;60.01
13767;BME280;47980;48.794;9.176;2023-07-20T02:31:27;98104.50;;;18.77;59.86
13767;BME280;47980;48.794;9.176;2023-07-20T02:34:00;98101.84;;;18.81;59.23
13767;BME280;47980;48.794;9.176;2023-07-20T02:36:32;98109.53;;;18.79;59.46
13767;BME280;47980;48.794;9.176;2023-07-20T02:39:03;98113.72;;;18.76;60.91
13767;BME280;47980;48.794;9.176;2023-07-20T02:41:35;98109.81;;;18.66;60.65
13767;BME280;47980;48.794;9.176;2023-07-20T02:44:07;98111.34;;;18.60;61.38
13767;BME280;47980;48.794;9.176;2023-07-20T02:46:38;98108.66;;;18.60;60.64
13767;BME280;47980;48.794;9.176;2023-07-20T02:49:11;98112.47;;;18.56;61.64
13767;BME280;47980;48.794;9.176;2023-07-20T02:51:42;98111.28;;;18.49;61.15
13767;BME280;47980;48.794;9.176;2023-07-20T02:54:14;98121.22;;;18.42;61.85
13767;BME280;47980;48.794;9.176;2023-07-20T02:56:46;98115.81;;;18.31;63.03
13767;BME280;47980;48.794;9.176;2023-07-20T02:59:18;98122.31;;;18.34;63.67
13767;BME280;47980;48.794;9.176;2023-07-20T03:01:50;98122.31;;;18.30;63.45
13767;BME280;47980;48.794;9.176;2023-07-20T03:04:23;98121.81;;;18.14;63.19
13767;BME280;47980;48.794;9.176;2023-07-20T03:06:55;98135.66;;;18.16;nan
13767;BME280;47980;48.794;9.176;2023-07-20T03:09:26;98129.19;;;18.24;64.55
13767;BME280;47980;48.794;9.176;2023-07-20T03:11:58;98128.41;;;18.23;63.02
13767;BME280;47980;48.794;9.176;2023-07-20T03:14:29;98129.53;;;18.19;62.90
13767;BME280;47980;48.794;9.176;2023-07-20T03:17:01;98129.97;;;18.28;63.12
13767;BME280;47980;48.794;9.176;2023-07-20T03:19:34;98133.38;;;18.21;63.54
13767;BME280;47980;48.794;9.176;2023-07-20T03:22:05;98136.47;;;18.23;62.78
13767;BME280;47980;48.794;9.176;2023-07-20T03:24:37;98135.31;;;18.24;64.15
13767;BME280;47980;48.794;9.176;2023-07-20T03:27:08;98136.84;;;18.25;63.11
13767;BME280;47980;48.794;9.176;2023-07-20T03:29:40;98137.94;;;18.14;63.20
13767;BME280;47980;48.794;9.176;2023-07-20T03:32:11;98135.25;;;18.14;63.11
13767;BME280;47980;48.794;9.176;2023-07-20T03:34:44;98140.25;;;18.15;64.73
13767;BME280;47980;48.794;9.176;2023-07-20T03:37:16;98142.84;;;18.04;64.22
13767;BME280;47980;48.794;9.176;2023-07-20T03:39:47;98131.34;;;18.04;63.40
13767;BME280;47980;48.794;9.176;2023-07-20T03:42:19;98134.84;;;18.12;63.93
13767;BME280;47980;48.794;9.176;2023-07-20T03:44:50;98142.91;;;18.15;63.85
13767;BME280;47980;48.794;9.176;2023-07-20T03:47:22;98143.19;;;17.96;63.89
13767;BME280;47980;48.794;9.176;2023-07-20T03:49:55;98143.13;;;17.89;64.92
13767;BME280;47980;48.794;9.176;2023-07-20T03:52:27;98148.84;;;17.84;66.24
13767;BME280;47980;48.794;9.176;2023-07-20T03:54:58;98144.59;;;17.83;66.63
13767;BME280;47980;48.794;9.176;2023-07-20T03:57:30;98139.69;;;17.92;65.75
13767;BME280;47980;48.794;9.176;2023-07-20T04:00:03;98146.41;;;18.16;64.79
13767;BME280;47980;48.794;9.176;2023-07-20T04:02:38;98147.41;;;18.52;63.63
13767;BME280;47980;48.794;9.176;2023-07-20T04:05:10;98146.84;;;18.98;60.79
13767;BME280;47980;48.794;9.176;2023-07-20T04:07:42;98141.16;;;19.32;60.60
13767;BME280;47980;48.794;9.176;2023-07-20T04:10:13;98147.75;;;19.48;58.35
13767;BME280;47980;48.794;9.176;2023-07-20T04:12:45;98142.38;;;19.59;58.96
13767;BME280;47980;48.794;9.176;2023-07-20T04:15:18;98151.22;;;20.24;57.58
13767;BME280;47980;48.794;9.176;2023-07-20T04:17:52;98149.69;;;20.52;56.30
13767;BME280;47980;48.794;9.176;2023-07-20T04:20:25;98152.16;;;21.02;55.23
13767;BME280;47980;48.794;9.176;2023-07-20T04:22:56;98166.88;;;20.90;54.88
13767;BME280;47980;48.794;9.176;2023-07-20T04:25:28;98152.91;;;21.06;54.20
13767;BME280;47980;48.794;9.176;2023-07-20T04:27:59;98147.94;;;21.67;52.41
13767;BME280;47980;48.794;9.176;2023-07-20T04:30:31;98155.38;;;22.08;52.53
13767;BME280;47980;48.794;9.176;2023-07-20T04:33:02;98151.59;;;22.40;51.03
13767;BME280;47980;48.794;9.176;2023-07-20T04:35:49;98151.81;;;22.18;51.89
13767;BME280;47980;48.794;9.176;2023-07-20T04:38:21;98154.50;;;22.18;51.50
13767;BME280;47980;48.794;9.176;2023-07-20T04:40:52;98147.06;;;21.84;52.87
13767;BME280;47980;48.794;9.176;2023-07-20T04:43:24;98149.44;;;21.79;53.20
13767;BME280;47980;48.794;9.176;2023-07-20T04:45:55;98163.94;;;21.44;54.82
13767;BME280;47980;48.794;9.176;2023-07-20T04:48:27;98150.41;;;21.51;53.67
13767;BME280;47980;48.794;9.176;2023-07-20T04:51:00;98149.38;;;21.20;54.82
13767;BME280;47980;48.794;9.176;2023-07-20T04:53:31;98150.50;;;21.29;54.19
13767;BME280;47980;48.794;9.176;2023-07-20T04:56:03;98153.81;;;21.58;54.42
13767;BME280;47980;48.794;9.176;2023-07-20T04:58:35;98154.72;;;21.37;53.80
13767;BME280;47980;48.794;9.176;2023-07-20T05:01:08;98160.75;;;21.59;54.09
13767;BME280;47980;48.794;9.176;2023-07-20T05:03:39;98147.72;;;21.96;53.68
13767;BME280;47980;48.794;9.176;2023-07-20T05:06:12;98161.75;;;21.83;53.59
13767;BME280;47980;48.794;9.176;2023-07-20T05:08:44;98157.88;;;21.81;53.69
13767;BME280;47980;48.794;9.176;2023-07-20T05:11:15;98160.69;;;22.19;53.46
13767;BME280;47980;48.794;9.176;2023-07-20T05:13:47;98153.03;;;22.06;53.36
13767;BME280;47980;48.794;9.176;2023-07-20T05:16:19;98159.63;;;22.47;52.27
13767;BME280;47980;48.794;9.176;2023-07-20T05:18:50;98151.97;;;22.42;51.54
13767;BME280;47980;48.794;9.176;2023-07-20T05:21:23;98156.44;;;22.18;52.17
13767;BME280;47980;48.794;9.176;2023-07-20T05:23:55;98156.13;;;22.08;51.73
13767;BME280;47980;48.794;9.176;2023-07-20T05:26:26;98153.75;;;22.18;52.53
13767;BME280;47980;48.794;9.176;2023-07-20T05:28:58;98147.56;;;22.14;52.09
13767;BME280;47980;48.794;9.176;2023-07-20T05:31:29;98153.34;;;22.19;53.27
13767;BME280;47980;48.794;9.176;2023-07-20T05:34:01;98153.28;;;22.64;52.10
13767;BME280;47980;48.794;9.176;2023-07-20T05:36:34;98149.50;;;22.13;52.29
13767;BME280;47980;48.794;9.176;2023-07-20T05:39:07;98146.47;;;22.52;52.58
13767;BME280;47980;48.794;9.176;2023-07-20T05:41:38;98151.41;;;22.57;51.64
13767;BME280;47980;48.794;9.176;2023-07-20T05:44:09;98153.00;;;23.20;50.90
13767;BME280;47980;48.794;9.176;2023-07-20T05:46:41;98155.03;;;23.12;50.95
13767;BME280;47980;48.794;9.176;2023-07-20T05:49:12;98150.19;;;23.00;52.20
13767;BME280;47980;48.794;9.176;2023-07-20T05:51:46;98157.31;;;22.83;51.49
13767;BME280;47980;48.794;9.176;2023-07-20T05:54:18;98151.47;;;23.19;51.32
13767;BME280;47980;48.794;9.176;2023-07-20T05:56:49;98150.16;;;23.30;51.73
13767;BME280;47980;48.794;9.176;2023-07-20T05:59:21;98158.56;;;23.09;51.06
13767;BME280;47980;48.794;9.176;2023-07-20T06:01:53;98155.78;;;23.70;50.32
13767;BME280;47980;48.794;9.176;2023-07-20T06:04:25;98155.28;;;23.79;50.08
13767;BME280;47980;48.794;9.176;2023-07-20T06:06:58;98153.22;;;23.33;50.52
13767;BME280;47980;48.794;9.176;2023-07-20T06:09:30;98147.97;;;22.53;52.52
13767;BME280;47980;48.794;9.176;2023-07-20T06:12:02;98154.16;;;22.16;53.03
13767;BME280;47980;48.794;9.176;2023-07-20T06:14:33;98151.56;;;22.02;52.82
13767;BME280;47980;48.794;9.176;2023-07-20T06:17:05;98155.19;;;21.81;54.65
13767;BME280;47980;48.794;9.176;2023-07-20T06:19:36;98153.53;;;21.98;55.33
13767;BME280;47980;48.794;9.176;2023-07-20T06:22:09;98152.44;;;22.33;55.09
13767;BME280;47980;48.794;9.176;2023-07-20T06:24:41;98157.97;;;22.94;52.86
13767;BME280;47980;48.794;9.176;2023-07-20T06:27:12;98162.44;;;23.08;51.81
13767;BME280;47980;48.794;9.176;2023-07-20T06:29:44;98151.94;;;22.79;53.25
13767;BME280;47980;48.794;9.176;2023-07-20T06:32:16;98159.41;;;22.68;53.04
13767;BME280;47980;48.794;9.176;2023-07-20T06:34:47;98155.19;;;22.26;54.19
13767;BME280;47980;48.794;9.176;2023-07-20T06:37:20;98166.34;;;22.31;54.56
13767;BME280;47980;48.794;9.176;2023-07-20T06:39:51;98155.56;;;22.66;53.80
13767;BME280;47980;48.794;9.176;2023-07-20T06:42:23;98156.53;;;22.82;53.39
13767;BME280;47980;48.794;9.176;2023-07-20T06:44:54;98168.34;;;22.99;52.32
13767;BME280;47980;48.794;9.176;2023-07-20T06:47:26;98152.78;;;22.73;53.57
13767;BME280;47980;48.794;9.176;2023-07-20T06:49:58;98155.25;;;22.94;52.00
13767;BME280;47980;48.794;9.176;2023-07-20T06:52:31;98150.75;;;22.84;52.87
13767;BME280;47980;48.794;9.176;2023-07-20T06:55:03;98153.31;;;22.61;53.36
13767;BME280;47980;48.794;9.176;2023-07-20T06:57:34;98154.50;;;22.90;53.20
13767;BME280;47980;48.794;9.176;2023-07-20T07:00:07;98152.38;;;23.09;53.03
13767;BME280;47980;48.794;9.176;2023-07-20T07:02:38;98149.03;;;23.55;50.81
13767;BME280;47980;48.794;9.176;2023-07-20T07:05:10;98153.16;;;23.63;50.32
13767;BME280;47980;48.794;9.176;2023-07-20T07:07:45;98147.50;;;23.54;50.61
13767;BME280;47980;48.794;9.176;2023-07-20T07:10:16;98144.16;;;23.97;50.37
13767;BME280;47980;48.794;9.176;2023-07-20T07:12:48;98148.19;;;23.85;50.75
13767;BME280;47980;48.794;9.176;2023-07-20T07:15:20;98157.47;;;23.61;50.56
13767;BME280;47980;48.794;9.176;2023-07-20T07:17:51;98149.78;;;23.55;50.01
13767;BME280;47980;48.794;9.176;2023-07-20T07:20:22;98143.81;;;23.14;50.47
13767;BME280;47980;48.794;9.176;2023-07-20T07:22:56;98150.56;;;22.98;52.16
13767;BME280;47980;48.794;9.176;2023-07-20T07:25:27;98144.84;;;22.93;51.28
13767;BME280;47980;48.794;9.176;2023-07-20T07:27:59;98149.53;;;23.73;50.66
13767;BME280;47980;48.794;9.176;2023-07-20T07:30:30;98141.72;;;24.26;49.76
13767;BME280;47980;48.794;9.176;2023-07-20T07:33:02;98138.06;;;24.76;48.87
13767;BME280;47980;48.794;9.176;2023-07-20T07:35:33;98128.88;;;24.70;48.14
13767;BME280;47980;48.794;9.176;2023-07-20T07:38:07;98136.47;;;24.79;48.37
13767;BME280;47980;48.794;9.176;2023-07-20T07:40:39;98135.41;;;24.92;48.38
13767;BME280;47980;48.794;9.176;2023-07-20T07:43:11;98131.59;;;24.50;48.69
13767;BME280;47980;48.794;9.176;2023-07-20T07:45:54;98138.41;;;24.78;48.98
13767;BME280;47980;48.794;9.176;2023-07-20T07:48:25;98136.19;;;25.13;47.14
13767;BME280;47980;48.794;9.176;2023-07-20T07:50:57;98137.97;;;25.00;45.89
13767;BME280;47980;48.794;9.176;2023-07-20T07:53:30;98132.41;;;25.43;46.28
13767;BME280;47980;48.794;9.176;2023-07-20T07:56:02;98130.50;;;25.04;46.65
13767;BME280;47980;48.794;9.176;2023-07-20T07:58:34;98129.66;;;24.70;47.39
13767;BME280;47980;48.794;9.176;2023-07-20T08:01:05;98135.84;;;24.71;46.82
13767;BME280;47980;48.794;9.176;2023-07-20T08:03:37;98130.56;;;25.20;46.71
13767;BME280;47980;48.794;9.176;2023-07-20T08:06:09;98128.56;;;25.04;46.44
13767;BME280;47980;48.794;9.176;2023-07-20T08:08:46;98123.03;;;24.71;46.94
13767;BME280;47980;48.794;9.176;2023-07-20T08:11:20;98124.41;;;24.40;47.14
13767;BME280;47980;48.794;9.176;2023-07-20T08:13:52;98133.59;;;24.86;47.15
13767;BME280;47980;48.794;9.176;2023-07-20T08:16:24;98129.56;;;25.14;45.82
13767;BME280;47980;48.794;9.176;2023-07-20T08:18:55;98124.56;;;24.53;46.59
13767;BME280;47980;48.794;9.176;2023-07-20T08:21:27;98120.94;;;24.39;46.98
13767;BME280;47980;48.794;9.176;2023-07-20T08:23:59;98126.50;;;23.85;47.49
13767;BME280;47980;48.794;9.176;2023-07-20T08:26:31;98128.06;;;23.86;48.00
13767;BME280;47980;48.794;9.176;2023-07-20T08:29:02;98137.38;;;23.31;49.47
13767;BME280;47980;48.794;9.176;2023-07-20T08:31:34;98125.69;;;24.55;47.51
13767;BME280;47980;48.794;9.176;2023-07-20T08:34:05;98125.13;;;24.00;48.93
13767;BME280;47980;48.794;9.176;2023-07-20T08:36:37;98136.78;;;23.47;49.12
13767;BME280;47980;48.794;9.176;2023-07-20T08:39:10;98143.16;;;23.06;50.74
13767;BME280;47980;48.794;9.176;2023-07-20T08:41:42;98127.84;;;24.20;49.01
13767;BME280;47980;48.794;9.176;2023-07-20T08:44:14;98133.53;;;24.89;47.55
13767;BME280;47980;48.794;9.176;2023-07-20T08:46:47;98136.56;;;25.31;44.97
13767;BME280;47980;48.794;9.176;2023-07-20T08:49:20;98127.94;;;24.96;45.71
13767;BME280;47980;48.794;9.176;2023-07-20T08:51:52;98128.81;;;23.87;47.53
13767;BME280;47980;48.794;9.176;2023-07-20T08:54:28;98126.75;;;24.38;46.53
13767;BME280;47980;48.794;9.176;2023-07-20T08:57:04;98122.59;;;24.33;46.52
13767;BME280;47980;48.794;9.176;2023-07-20T08:59:36;98127.84;;;24.20;47.19
13767;BME280;47980;48.794;9.176;2023-07-20T09:02:14;98132.41;;;24.47;46.03
13767;BME280;47980;48.794;9.176;2023-07-20T09:04:47;98118.47;;;24.25;45.54
13767;BME280;47980;48.794;9.176;2023-07-20T09:07:20;98119.25;;;24.85;45.22
13767;BME280;47980;48.794;9.176;2023-07-20T09:09:56;98121.31;;;24.41;46.16
13767;BME280;47980;48.794;9.176;2023-07-20T09:12:28;98110.84;;;23.96;46.33
13767;BME280;47980;48.794;9.176;2023-07-20T09:15:00;98116.00;;;23.64;46.55
13767;BME280;47980;48.794;9.176;2023-07-20T09:17:31;98122.53;;;23.93;47.00
13767;BME280;47980;48.794;9.176;2023-07-20T09:20:03;98125.94;;;23.97;45.87
13767;BME280;47980;48.794;9.176;2023-07-20T09:22:38;98117.50;;;24.35;45.71
13767;BME280;47980;48.794;9.176;2023-07-20T09:25:13;98112.09;;;25.48;43.30
13767;BME280;47980;48.794;9.176;2023-07-20T09:27:46;98118.34;;;26.55;40.97
13767;BME280;47980;48.794;9.176;2023-07-20T09:30:18;98109.47;;;25.60;42.87
13767;BME280;47980;48.794;9.176;2023-07-20T09:32:49;98113.19;;;24.97;45.03
13767;BME280;47980;48.794;9.176;2023-07-20T09:35:22;98124.31;;;24.23;45.84
13767;BME280;47980;48.794;9.176;2023-07-20T09:37:55;98117.63;;;23.85;47.21
13767;BME280;47980;48.794;9.176;2023-07-20T09:40:30;98120.97;;;23.92;47.33
13767;BME280;47980;48.794;9.176;2023-07-20T09:43:02;98105.66;;;25.05;43.36
13767;BME280;47980;48.794;9.176;2023-07-20T09:45:35;98104.25;;;26.15;43.71
13767;BME280;47980;48.794;9.176;2023-07-20T09:48:11;98105.13;;;25.96;40.22
13767;BME280;47980;48.794;9.176;2023-07-20T09:50:48;98113.13;;;25.86;41.61
13767;BME280;47980;48.794;9.176;2023-07-20T09:53:20;98112.59;;;25.26;42.82
13767;BME280;47980;48.794;9.176;2023-07-20T09:55:53;98108.06;;;24.83;43.52
13767;BME280;47980;48.794;9.176;2023-07-20T09:58:26;98099.50;;;24.65;44.03
13767;BME280;47980;48.794;9.176;2023-07-20T10:01:00;98103.88;;;24.79;42.92
13767;BME280;47980;48.794;9.176;2023-07-20T10:03:37;98106.53;;;24.82;43.16
13767;BME280;47980;48.794;9.176;2023-07-20T10:06:11;98097.59;;;24.02;43.73
13767;BME280;47980;48.794;9.176;2023-07-20T10:08:44;98101.59;;;24.57;43.01
13767;BME280;47980;48.794;9.176;2023-07-20T10:11:22;98092.56;;;25.36;40.58
13767;BME280;47980;48.794;9.176;2023-07-20T10:13:59;98087.81;;;25.73;40.52
13767;BME280;47980;48.794;9.176;2023-07-20T10:16:34;98108.19;;;25.32;42.31
13767;BME280;47980;48.794;9.176;2023-07-20T10:19:07;98098.69;;;25.73;40.93
13767;BME280;47980;48.794;9.176;2023-07-20T10:21:47;98078.81;;;25.11;39.98
13767;BME280;47980;48.794;9.176;2023-07-20T10:24:19;98090.28;;;25.51;39.14
13767;BME280;47980;48.794;9.176;2023-07-20T10:26:52;98075.00;;;25.25;40.10
13767;BME280;47980;48.794;9.176;2023-07-20T10:29:24;98085.44;;;25.75;38.57
13767;BME280;47980;48.794;9.176;2023-07-20T10:31:58;98067.91;;;25.92;38.89
13767;BME280;47980;48.794;9.176;2023-07-20T10:34:29;98069.75;;;25.83;38.68
13767;BME280;47980;48.794;9.176;2023-07-20T10:37:01;98077.53;;;25.48;38.35
13767;BME280;47980;48.794;9.176;2023-07-20T10:39:33;98070.56;;;25.31;39.60
13767;BME280;47980;48.794;9.176;2023-07-20T10:42:09;98072.75;;;26.01;39.00
13767;BME280;47980;48.794;9.176;2023-07-20T10:44:40;98068.69;;;25.93;38.30
13767;BME280;47980;48.794;9.176;2023-07-20T10:47:13;98065.97;;;25.77;38.03
13767;BME280;47980;48.794;9.176;2023-07-20T10:49:57;98052.81;;;25.10;38.77
13767;BME280;47980;48.794;9.176;2023-07-20T10:52:36;98052.81;;;25.10;38.66
13767;BME280;47980;48.794;9.176;2023-07-20T10:55:14;98060.75;;;25.20;39.50
13767;BME280;47980;48.794;9.176;2023-07-20T10:58:06;98053.22;;;25.74;38.66
13767;BME280;47980;48.794;9.176;2023-07-20T11:00:38;98048.31;;;25.52;38.05
13767;BME280;47980;48.794;9.176;2023-07-20T11:03:30;98057.13;;;25.89;37.91
13767;BME280;47980;48.794;9.176;2023-07-20T11:06:29;98046.63;;;26.62;37.52
13767;BME280;47980;48.794;9.176;2023-07-20T11:09:06;98045.72;;;26.52;37.87
13767;BME280;47980;48.794;9.176;2023-07-20T11:11:41;98045.75;;;26.23;35.78
13767;BME280;47980;48.794;9.176;2023-07-20T11:14:22;98052.66;;;25.66;37.40
13767;BME280;47980;48.794;9.176;2023-07-20T11:16:54;98050.50;;;25.74;37.35
13767;BME280;47980;48.794;9.176;2023-07-20T11:19:27;98050.53;;;26.19;37.04
13767;BME280;47980;48.794;9.176;2023-07-20T11:21:59;98046.94;;;26.22;35.71
13767;BME280;47980;48.794;9.176;2023-07-20T11:24:31;98060.53;;;26.22;36.67
13767;BME280;47980;48.794;9.176;2023-07-20T11:27:03;98047.13;;;26.15;36.66
13767;BME280;47980;48.794;9.176;2023-07-20T11:29:38;98048.88;;;26.22;36.98
13767;BME280;47980;48.794;9.176;2023-07-20T11:32:09;98046.69;;;26.16;36.70
13767;BME280;47980;48.794;9.176;2023-07-20T11:34:41;98035.63;;;26.78;37.01
13767;BME280;47980;48.794;9.176;2023-07-20T11:37:12;98043.72;;;26.95;36.50
13767;BME280;47980;48.794;9.176;2023-07-20T11:39:44;98052.19;;;26.84;36.77
13767;BME280;47980;48.794;9.176;2023-07-20T11:42:19;98045.63;;;26.69;36.47
13767;BME280;47980;48.794;9.176;2023-07-20T11:44:52;98038.47;;;27.00;35.16
13767;BME280;47980;48.794;9.176;2023-07-20T11:47:29;98040.97;;;27.07;34.52
13767;BME280;47980;48.794;9.176;2023-07-20T11:50:03;98034.44;;;27.30;35.04
13767;BME280;47980;48.794;9.176;2023-07-20T11:52:35;98026.59;;;26.94;35.04
13767;BME280;47980;48.794;9.176;2023-07-20T11:55:08;98031.59;;;26.28;35.62
13767;BME280;47980;48.794;9.176;2023-07-20T11:57:39;98023.66;;;25.92;35.89
13767;BME280;47980;48.794;9.176;2023-07-20T12:00:13;98025.81;;;26.55;35.94
13767;BME280;47980;48.794;9.176;2023-07-20T12:02:46;98018.63;;;26.49;34.82
13767;BME280;47980;48.794;9.176;2023-07-20T12:05:18;97997.31;;;26.73;35.93
13767;BME280;47980;48.794;9.176;2023-07-20T12:07:49;98011.84;;;26.40;35.37
13767;BME280;47980;48.794;9.176;2023-07-20T12:10:26;98020.41;;;26.81;35.82
13767;BME280;47980;48.794;9.176;2023-07-20T12:13:01;98017.56;;;26.59;35.22
13767;BME280;47980;48.794;9.176;2023-07-20T12:15:37;98017.94;;;26.03;34.45
13767;BME280;47980;48.794;9.176;2023-07-20T12:18:08;98008.41;;;25.82;34.77
13767;BME280;47980;48.794;9.176;2023-07-20T12:20:40;98009.59;;;25.81;36.02
13767;BME280;47980;48.794;9.176;2023-07-20T12:23:12;98006.34;;;25.69;34.48
13767;BME280;47980;48.794;9.176;2023-07-20T12:25:45;98004.19;;;26.35;35.65
13767;BME280;47980;48.794;9.176;2023-07-20T12:28:18;97998.38;;;26.75;34.00
13767;BME280;47980;48.794;9.176;2023-07-20T12:30:52;97998.59;;;26.68;34.96
13767;BME280;47980;48.794;9.176;2023-07-20T12:33:26;97995.75;;;26.46;34.70
13767;BME280;47980;48.794;9.176;2023-07-20T12:36:00;98003.28;;;27.06;35.28
13767;BME280;47980;48.794;9.176;2023-07-20T12:38:31;97991.81;;;27.36;35.57
13767;BME280;47980;48.794;9.176;2023-07-20T12:41:03;97998.47;;;27.23;34.99
13767;BME280;47980;48.794;9.176;2023-07-20T12:43:35;97980.16;;;27.36;34.18
13767;BME280;47980;48.794;9.176;2023-07-20T12:46:08;97979.16;;;27.30;34.72
13767;BME280;47980;48.794;9.176;2023-07-20T12:48:40;97982.94;;;26.85;35.15
13767;BME280;47980;48.794;9.176;2023-07-20T12:51:13;97984.34;;;26.77;35.40
13767;BME280;47980;48.794;9.176;2023-07-20T12:53:45;97973.31;;;26.29;34.49
13767;BME280;47980;48.794;9.176;2023-07-20T12:56:16;97978.75;;;26.29;35.13
13767;BME280;47980;48.794;9.176;2023-07-20T12:58:47;97980.41;;;26.52;34.09
13767;BME280;47980;48.794;9.176;2023-07-20T13:01:21;97963.91;;;26.17;34.04
13767;BME280;47980;48.794;9.176;2023-07-20T13:03:54;97965.94;;;26.55;34.56
13767;BME280;47980;48.794;9.176;2023-07-20T13:06:26;97955.59;;;26.50;33.67
13767;BME280;47980;48.794;9.176;2023-07-20T13:08:57;97952.94;;;27.10;34.70
13767;BME280;47980;48.794;9.176;2023-07-20T13:11:29;97947.47;;;27.23;33.72
13767;BME280;47980;48.794;9.176;2023-07-20T13:14:00;97942.97;;;27.42;33.19
13767;BME280;47980;48.794;9.176;2023-07-20T13:16:33;97947.72;;;26.91;33.52
13767;BME280;47980;48.794;9.176;2023-07-20T13:19:05;97947.59;;;26.94;33.75
13767;BME280;47980;48.794;9.176;2023-07-20T13:21:37;97942.09;;;27.67;33.26
13767;BME280;47980;48.794;9.176;2023-07-20T13:24:09;97949.34;;;27.83;33.48
13767;BME280;47980;48.794;9.176;2023-07-20T13:26:44;97948.47;;;27.51;32.05
13767;BME280;47980;48.794;9.176;2023-07-20T13:29:16;97949.84;;;27.91;32.06